Time;durP1;ratioP1;P1;durP2;ratioP2;P2;SDS_P1;SDS_P2;PMS_P1;PMS_P2;Temp;Humidity;BMP_temperature;BMP_pressure;BME280_temperature;BME280_humidity;BME280_pressure;Samples;Min_cycle;Max_cycle;Signal;HPM_P1;HPM_P2
2022/08/17 00:00:33;;;;;;;3.67;2.15;;;;;;;24.20;50.03;100609.44;2108390;28;20085;-75
2022/08/17 00:01:56;;;;;;;3.33;2.20;;;;;;;24.18;50.02;100608.59;2111659;28;20058;-75
2022/08/17 00:03:21;;;;;;;2.50;1.70;;;;;;;24.13;50.18;100608.78;2104921;28;20060;-74
2022/08/17 00:04:42;;;;;;;4.07;1.98;;;;;;;24.10;50.08;100611.59;2105503;28;20597;-75
2022/08/17 00:06:10;;;;;;;4.53;2.00;;;;;;;24.06;50.07;100603.72;2104308;28;20100;-75
2022/08/17 00:07:32;;;;;;;3.22;2.25;;;;;;;24.00;50.20;100604.88;2097015;28;20052;-75
2022/08/17 00:08:58;;;;;;;4.15;2.03;;;;;;;23.97;50.11;100601.41;2108898;28;20040;-75
2022/08/17 00:10:20;;;;;;;5.45;1.83;;;;;;;23.90;50.40;100608.88;2105796;28;20104;-75
2022/08/17 00:11:44;;;;;;;4.07;1.90;;;;;;;23.87;50.49;100600.94;2095804;28;20097;-75
2022/08/17 00:13:11;;;;;;;3.42;1.80;;;;;;;23.84;50.64;100601.03;2101520;28;20052;-75
2022/08/17 00:14:35;;;;;;;3.83;2.00;;;;;;;23.82;50.67;100603.81;2087512;28;20037;-75
2022/08/17 00:16:00;;;;;;;4.47;1.95;;;;;;;23.83;50.67;100600.16;2100777;28;20400;-75
2022/08/17 00:17:21;;;;;;;3.03;2.17;;;;;;;23.79;50.66;100600.34;2095887;28;20123;-75
2022/08/17 00:18:45;;;;;;;3.17;1.90;;;;;;;23.73;50.67;100604.19;2091496;28;20094;-75
2022/08/17 00:20:08;;;;;;;2.55;1.98;;;;;;;23.68;50.74;100600.81;2101497;28;20036;-75
2022/08/17 00:21:31;;;;;;;4.10;2.22;;;;;;;23.63;50.76;100596.56;2119177;27;20051;-76
2022/08/17 00:23:02;;;;;;;3.95;2.40;;;;;;;23.58;51.10;100601.22;2099189;28;20069;-76
2022/08/17 00:24:27;;;;;;;5.72;2.33;;;;;;;23.54;51.41;100591.53;2099995;28;20067;-75
2022/08/17 00:25:48;;;;;;;7.43;2.10;;;;;;;23.51;51.42;100595.22;2103088;28;20051;-75
2022/08/17 00:27:11;;;;;;;2.97;1.80;;;;;;;23.52;51.40;100590.69;2100921;28;20055;-75
2022/08/17 00:28:33;;;;;;;3.67;2.15;;;;;;;23.48;51.50;100584.56;2094625;28;20139;-75
2022/08/17 00:29:56;;;;;;;3.08;2.10;;;;;;;23.45;51.68;100574.75;2090717;28;20041;-75
2022/08/17 00:31:18;;;;;;;4.00;2.10;;;;;;;23.46;51.54;100581.00;2108598;27;20534;-75
2022/08/17 00:32:42;;;;;;;3.85;2.08;;;;;;;23.46;51.60;100581.00;2104722;28;20064;-75
2022/08/17 00:34:07;;;;;;;3.95;2.00;;;;;;;23.41;51.95;100578.53;2120174;27;20428;-75
2022/08/17 00:35:30;;;;;;;3.55;2.08;;;;;;;23.38;52.05;100583.13;2107651;28;20040;-75
2022/08/17 00:36:51;;;;;;;2.90;1.95;;;;;;;23.36;51.99;100588.63;2107933;28;20142;-75
2022/08/17 00:38:14;;;;;;;4.35;2.20;;;;;;;23.34;52.26;100578.81;2101177;28;20481;-74
2022/08/17 00:39:38;;;;;;;3.45;1.92;;;;;;;23.32;52.25;100589.66;2119059;27;20031;-75
2022/08/17 00:41:04;;;;;;;3.88;2.00;;;;;;;23.29;52.49;100584.41;2108174;28;20060;-75
2022/08/17 00:42:25;;;;;;;4.00;2.20;;;;;;;23.29;52.37;100583.53;2093638;28;20123;-75
2022/08/17 00:43:50;;;;;;;4.53;2.30;;;;;;;23.29;52.50;100579.00;2094548;28;20498;-76
2022/08/17 00:45:14;;;;;;;4.55;2.10;;;;;;;23.32;52.30;100576.19;2107282;28;20064;-75
2022/08/17 00:46:40;;;;;;;3.65;2.10;;;;;;;23.33;52.28;100580.63;2102508;28;20135;-75
2022/08/17 00:48:02;;;;;;;5.95;2.35;;;;;;;23.30;52.06;100578.03;2103000;28;20040;-74
2022/08/17 00:49:25;;;;;;;5.63;2.10;;;;;;;23.26;52.13;100587.19;2103025;28;20054;-75
2022/08/17 00:50:53;;;;;;;3.45;2.35;;;;;;;23.25;52.08;100579.16;2119754;27;20437;-75
2022/08/17 00:52:20;;;;;;;6.07;2.00;;;;;;;23.20;52.33;100578.47;2106161;28;20044;-74
2022/08/17 00:53:59;;;;;;;4.93;2.20;;;;;;;23.16;52.44;100580.44;2117856;27;20072;-75
2022/08/17 00:55:24;;;;;;;3.90;2.28;;;;;;;23.14;52.48;100573.34;2097584;28;20051;-75
2022/08/17 00:56:52;;;;;;;5.60;2.13;;;;;;;23.14;52.48;100573.34;2108254;28;20060;-75
2022/08/17 00:58:14;;;;;;;3.45;1.90;;;;;;;23.14;52.78;100576.03;2104434;28;20056;-74
2022/08/17 00:59:39;;;;;;;4.05;2.30;;;;;;;23.13;52.77;100576.97;2105228;28;20047;-74
2022/08/17 01:01:02;;;;;;;3.78;2.10;;;;;;;23.13;52.86;100576.97;2103170;28;20465;-75
2022/08/17 01:02:23;;;;;;;5.45;2.15;;;;;;;23.15;52.87;100570.59;2102318;28;20044;-75
2022/08/17 01:03:46;;;;;;;4.00;2.10;;;;;;;23.18;52.61;100575.84;2114055;27;20438;-74
2022/08/17 01:05:10;;;;;;;3.50;2.20;;;;;;;23.19;52.69;100574.03;2099769;28;20108;-75
2022/08/17 01:06:33;;;;;;;4.47;2.30;;;;;;;23.13;52.39;100577.84;2093921;28;20041;-75
2022/08/17 01:07:55;;;;;;;3.22;2.10;;;;;;;23.02;52.65;100580.97;2092203;28;20147;-75
2022/08/17 01:09:19;;;;;;;5.65;2.60;;;;;;;22.97;53.06;100582.94;2091811;28;20094;-75
2022/08/17 01:10:47;;;;;;;4.75;2.47;;;;;;;22.93;53.17;100581.31;2109308;28;20468;-75
2022/08/17 01:12:11;;;;;;;3.60;2.00;;;;;;;22.91;53.39;100572.41;2107890;28;20084;-74
2022/08/17 01:13:37;;;;;;;3.92;2.20;;;;;;;22.97;53.79;100577.53;2096634;28;20049;-75
2022/08/17 01:14:58;;;;;;;2.97;2.20;;;;;;;23.00;53.79;100585.53;2103400;28;20048;-75
2022/08/17 01:16:24;;;;;;;3.35;2.08;;;;;;;22.99;54.22;100575.69;2096569;28;20597;-75
2022/08/17 01:17:46;;;;;;;3.00;2.00;;;;;;;22.99;54.24;100577.50;2103263;28;20074;-75
2022/08/17 01:19:23;;;;;;;2.95;1.90;;;;;;;23.05;54.41;100575.44;2096232;28;20134;-75
2022/08/17 01:20:48;;;;;;;3.95;2.30;;;;;;;23.15;54.43;100577.78;2103458;28;20052;-75
2022/08/17 01:22:24;;;;;;;3.00;2.17;;;;;;;23.28;54.80;100579.06;2094688;28;20044;-75
2022/08/17 01:23:46;;;;;;;3.90;2.50;;;;;;;23.33;54.47;100579.75;2102649;28;20150;-75
2022/08/17 01:25:09;;;;;;;5.70;2.03;;;;;;;23.35;54.04;100577.88;2105340;28;20041;-75
2022/08/17 01:26:33;;;;;;;5.38;2.10;;;;;;;23.35;54.05;100564.41;2097929;28;20097;-75
2022/08/17 01:27:54;;;;;;;5.22;2.70;;;;;;;23.37;54.46;100555.31;2101694;28;20105;-74
2022/08/17 01:29:18;;;;;;;6.72;2.60;;;;;;;23.44;54.55;100559.50;2110839;28;20525;-75
2022/08/17 01:30:41;;;;;;;3.13;2.10;;;;;;;23.50;54.42;100566.50;2094391;28;20067;-75
2022/08/17 01:32:06;;;;;;;4.50;2.25;;;;;;;23.49;54.18;100563.91;2116905;27;20112;-75
2022/08/17 01:33:28;;;;;;;3.10;2.20;;;;;;;23.45;54.29;100552.31;2107390;28;20097;-74
2022/08/17 01:34:51;;;;;;;3.95;2.00;;;;;;;23.42;54.62;100553.34;2109692;28;20059;-74
2022/08/17 01:36:12;;;;;;;3.83;1.92;;;;;;;23.45;54.94;100552.31;2104638;28;20078;-74
2022/08/17 01:37:40;;;;;;;4.35;2.33;;;;;;;23.48;54.99;100552.22;2101912;28;20391;-74
2022/08/17 01:39:02;;;;;;;5.40;2.28;;;;;;;23.49;55.00;100547.72;2117417;27;20051;-74
2022/08/17 01:40:36;;;;;;;5.40;2.28;;;;;;;23.51;54.72;100549.41;2105406;28;20086;-75
2022/08/17 01:42:05;;;;;;;4.78;2.28;;;;;;;23.51;54.81;100551.22;2095579;28;20059;-75
2022/08/17 01:43:33;;;;;;;3.97;2.40;;;;;;;23.44;54.75;100555.94;2107442;27;20051;-74
2022/08/17 01:44:57;;;;;;;3.92;2.13;;;;;;;23.39;54.87;100548.06;2096508;28;20040;-74
2022/08/17 01:46:25;;;;;;;4.40;2.50;;;;;;;23.40;55.01;100560.59;2094607;28;20081;-74
2022/08/17 01:47:48;;;;;;;4.10;2.15;;;;;;;23.40;54.94;100563.28;2101480;28;20131;-75
2022/08/17 01:49:11;;;;;;;4.47;2.30;;;;;;;23.42;55.16;100557.84;2103030;28;20535;-75
2022/08/17 01:50:37;;;;;;;5.05;2.17;;;;;;;23.39;55.20;100558.84;2118774;27;20126;-74
2022/08/17 01:52:07;;;;;;;4.13;1.90;;;;;;;23.39;55.51;100556.13;2098815;28;20393;-74
2022/08/17 01:53:37;;;;;;;4.07;2.50;;;;;;;23.42;55.42;100552.44;2110262;28;20032;-74
2022/08/17 01:54:58;;;;;;;7.22;2.65;;;;;;;23.41;55.36;100550.69;2104398;28;20052;-75
2022/08/17 01:56:24;;;;;;;6.07;2.30;;;;;;;23.41;55.45;100540.78;2093747;28;20048;-75
2022/08/17 01:57:45;;;;;;;3.53;2.13;;;;;;;23.43;55.58;100546.13;2100514;28;20086;-75
2022/08/17 01:59:08;;;;;;;4.57;2.42;;;;;;;23.41;55.50;100543.50;2106712;28;20051;-74
2022/08/17 02:00:29;;;;;;;4.03;2.20;;;;;;;23.38;55.99;100537.31;2096482;28;20048;-75
2022/08/17 02:01:52;;;;;;;3.35;2.17;;;;;;;23.42;56.65;100545.25;2102835;27;20043;-75
2022/08/17 02:03:13;;;;;;;3.97;2.40;;;;;;;23.45;56.75;100541.53;2105971;28;20097;-75
2022/08/17 02:04:36;;;;;;;4.07;2.67;;;;;;;23.48;56.63;100533.38;2102389;28;20035;-75
2022/08/17 02:05:58;;;;;;;5.03;2.30;;;;;;;23.51;56.71;100535.91;2101731;28;20524;-75
2022/08/17 02:07:20;;;;;;;;;;;;;;;23.48;56.83;100536.06;2119784;27;20051;-76
2022/08/17 02:08:45;;;;;;;;;;;;;;;23.44;56.75;100537.06;2107787;28;19967;-75
2022/08/17 02:10:09;;;;;;;4.10;2.28;;;;;;;23.44;56.59;100539.78;2101423;28;19920;-75
2022/08/17 02:11:33;;;;;;;2.45;2.03;;;;;;;23.44;56.87;100526.28;2118336;27;20100;-75
2022/08/17 02:12:56;;;;;;;5.97;2.35;;;;;;;23.46;56.79;100527.13;2109401;28;20036;-74
2022/08/17 02:14:18;;;;;;;3.72;1.92;;;;;;;23.47;56.43;100528.91;2110994;28;20054;-75
2022/08/17 02:15:40;;;;;;;5.22;2.28;;;;;;;23.47;56.41;100525.31;2102225;28;20072;-75
2022/08/17 02:17:02;;;;;;;3.88;2.47;;;;;;;23.44;56.22;100523.59;2100600;28;20093;-74
2022/08/17 02:18:24;;;;;;;4.07;2.42;;;;;;;23.39;56.34;100523.81;2119011;27;20111;-75
2022/08/17 02:19:47;;;;;;;;;;;;;;;23.33;56.34;100528.56;2108339;28;20051;-75
2022/08/17 02:21:08;;;;;;;5.68;2.10;;;;;;;23.32;56.19;100526.81;2101715;28;19920;-74
2022/08/17 02:22:31;;;;;;;2.97;2.25;;;;;;;23.33;56.44;100531.25;2093900;28;20044;-74
2022/08/17 02:23:54;;;;;;;3.97;2.20;;;;;;;23.32;56.43;100530.38;2106977;28;20081;-74
2022/08/17 02:25:19;;;;;;;4.45;2.45;;;;;;;23.32;56.61;100534.88;2096560;28;20052;-75
2022/08/17 02:26:46;;;;;;;4.95;2.38;;;;;;;23.31;56.81;100539.41;2102450;28;20572;-75
2022/08/17 02:28:08;;;;;;;;;;;;;;;23.30;56.98;100543.03;2100676;28;20055;-74
2022/08/17 02:29:31;;;;;;;4.95;2.50;;;;;;;23.32;56.86;100535.75;2107723;28;20010;-75
2022/08/17 02:30:53;;;;;;;4.38;2.17;;;;;;;23.35;56.93;100540.16;2097430;28;20051;-75
2022/08/17 02:32:17;;;;;;;3.83;2.33;;;;;;;23.37;57.04;100540.97;2099649;28;20487;-74
2022/08/17 02:33:40;;;;;;;4.72;2.47;;;;;;;23.37;57.09;100536.44;2119118;28;20566;-75
2022/08/17 02:35:04;;;;;;;4.28;2.30;;;;;;;23.39;57.26;100536.41;2090737;28;20056;-75
2022/08/17 02:36:27;;;;;;;4.68;2.67;;;;;;;23.39;57.37;100539.97;2113333;28;20630;-74
2022/08/17 02:37:50;;;;;;;4.65;2.40;;;;;;;23.39;57.29;100539.97;2098758;28;20047;-75
2022/08/17 02:39:14;;;;;;;3.10;1.98;;;;;;;23.41;57.28;100553.38;2108074;28;20056;-75
2022/08/17 02:40:36;;;;;;;4.00;2.38;;;;;;;23.39;57.56;100548.06;2096500;28;20542;-75
2022/08/17 02:42:00;;;;;;;;;;;;;;;23.36;57.74;100544.63;2099815;28;20055;-75
2022/08/17 02:43:22;;;;;;;4.13;2.20;;;;;;;23.39;57.62;100550.75;2100438;28;19924;-75
2022/08/17 02:44:44;;;;;;;4.22;2.53;;;;;;;23.40;57.73;100546.25;2102015;28;20040;-74
2022/08/17 02:46:06;;;;;;;7.22;2.67;;;;;;;23.41;57.87;100548.88;2090657;28;20524;-75
2022/08/17 02:47:28;;;;;;;5.20;2.42;;;;;;;23.43;58.07;100548.81;2091765;28;20052;-74
2022/08/17 02:48:50;;;;;;;5.22;2.55;;;;;;;23.43;58.36;100543.44;2102054;28;20052;-75
2022/08/17 02:50:15;;;;;;;6.60;2.42;;;;;;;23.45;58.52;100545.09;2093433;28;20151;-75
2022/08/17 02:51:38;;;;;;;3.90;2.55;;;;;;;23.45;58.90;100541.53;2091270;28;20037;-75
2022/08/17 02:53:00;;;;;;;4.60;2.70;;;;;;;23.48;59.07;100535.19;2104268;28;20571;-75
2022/08/17 02:54:24;;;;;;;5.20;2.70;;;;;;;23.53;59.51;100534.06;2103353;28;20551;-74
2022/08/17 02:55:47;;;;;;;6.20;2.70;;;;;;;23.57;59.70;100527.56;2105441;28;20546;-75
2022/08/17 02:57:10;;;;;;;3.72;2.30;;;;;;;23.58;59.30;100528.47;2107925;28;20070;-75
2022/08/17 02:58:31;;;;;;;6.03;2.50;;;;;;;23.54;58.81;100529.53;2101351;28;20488;-75
2022/08/17 02:59:54;;;;;;;4.47;2.55;;;;;;;23.51;58.83;100535.03;2102192;28;20089;-75
2022/08/17 03:01:16;;;;;;;5.55;3.33;;;;;;;23.50;59.14;100523.38;2101643;28;20044;-74
2022/08/17 03:02:38;;;;;;;4.22;2.53;;;;;;;23.53;59.64;100533.16;2111782;28;20078;-74
2022/08/17 03:04:01;;;;;;;3.03;2.20;;;;;;;23.53;59.81;100523.28;2107603;28;20036;-75
2022/08/17 03:05:25;;;;;;;5.32;2.47;;;;;;;23.54;59.92;100529.53;2110255;28;20079;-74
2022/08/17 03:06:47;;;;;;;4.97;2.85;;;;;;;23.54;60.06;100530.41;2102936;28;20048;-74
2022/08/17 03:08:09;;;;;;;4.68;2.67;;;;;;;23.56;60.13;100528.53;2094579;28;20087;-74
2022/08/17 03:09:33;;;;;;;6.05;2.58;;;;;;;23.58;60.20;100529.34;2099774;28;20040;-74
2022/08/17 03:10:56;;;;;;;4.75;2.80;;;;;;;23.59;60.14;100531.09;2104764;28;20051;-74
2022/08/17 03:12:18;;;;;;;5.03;3.15;;;;;;;23.60;60.09;100529.28;2106444;28;20527;-74
2022/08/17 03:13:40;;;;;;;5.25;2.70;;;;;;;23.59;60.17;100520.31;2093267;28;20040;-74
2022/08/17 03:15:04;;;;;;;9.75;2.55;;;;;;;23.59;60.15;100530.22;2118250;27;20054;-74
2022/08/17 03:16:26;;;;;;;4.63;2.50;;;;;;;23.61;60.62;100529.22;2112138;28;20711;-74
2022/08/17 03:17:48;;;;;;;5.78;3.10;;;;;;;23.60;60.36;100532.84;2101923;28;20457;-74
2022/08/17 03:19:11;;;;;;;;;;;;;;;23.58;60.52;100531.16;2102213;28;20047;-74
2022/08/17 03:20:35;;;;;;;6.03;2.72;;;;;;;23.60;60.63;100537.38;2104611;28;19951;-75
2022/08/17 03:21:58;;;;;;;5.00;2.75;;;;;;;23.61;60.54;100531.03;2102143;28;20447;-75
2022/08/17 03:23:21;;;;;;;4.63;2.45;;;;;;;23.67;60.75;100536.16;2102613;28;20055;-75
2022/08/17 03:24:43;;;;;;;5.50;2.92;;;;;;;23.75;60.88;100534.03;2110001;28;20590;-74
2022/08/17 03:26:07;;;;;;;5.95;2.85;;;;;;;23.80;60.84;100534.72;2095161;28;20060;-75
2022/08/17 03:27:28;;;;;;;6.45;3.10;;;;;;;23.82;60.74;100535.53;2105935;28;20069;-75
2022/08/17 03:28:50;;;;;;;7.82;2.72;;;;;;;23.80;60.74;100532.03;2103464;28;20404;-75
2022/08/17 03:30:12;;;;;;;4.97;2.60;;;;;;;23.82;61.15;100536.41;2120451;27;20066;-74
2022/08/17 03:31:34;;;;;;;6.30;2.80;;;;;;;23.81;61.14;100531.97;2100379;28;20063;-74
2022/08/17 03:33:00;;;;;;;6.32;2.88;;;;;;;23.80;61.15;100532.91;2111770;28;20071;-74
2022/08/17 03:34:22;;;;;;;4.20;2.42;;;;;;;23.79;61.11;100541.94;2103090;28;20091;-75
2022/08/17 03:35:45;;;;;;;6.43;2.90;;;;;;;23.80;61.04;100543.69;2102409;28;20476;-75
2022/08/17 03:37:07;;;;;;;3.65;2.60;;;;;;;23.84;61.19;100552.50;2103636;28;20050;-74
2022/08/17 03:38:30;;;;;;;5.85;2.88;;;;;;;23.85;61.13;100548.88;2096130;28;20134;-73
2022/08/17 03:39:53;;;;;;;6.40;2.78;;;;;;;23.86;61.35;100547.06;2104903;28;20047;-75
2022/08/17 03:41:15;;;;;;;5.03;2.72;;;;;;;23.84;60.83;100547.09;2095761;28;20523;-74
2022/08/17 03:42:39;;;;;;;4.90;2.58;;;;;;;23.83;60.93;100550.75;2091455;28;20052;-74
2022/08/17 03:44:01;;;;;;;6.38;2.90;;;;;;;23.80;60.84;100551.78;2101208;28;20510;-74
2022/08/17 03:57:15;;;;;;;6.65;2.80;;;;;;;23.71;60.74;100556.66;2111643;28;20044;-74
2022/08/17 03:58:36;;;;;;;5.53;2.47;;;;;;;23.74;60.83;100556.53;2089341;28;20073;-74
2022/08/17 03:59:59;;;;;;;4.43;2.67;;;;;;;23.78;60.84;100559.03;2108899;28;20531;-75
2022/08/17 04:01:22;;;;;;;6.63;2.72;;;;;;;23.82;60.70;100557.97;2100575;28;20114;-74
2022/08/17 04:02:44;;;;;;;5.22;2.30;;;;;;;23.91;60.78;100569.31;2119969;27;20043;-74
2022/08/17 04:04:06;;;;;;;5.65;2.72;;;;;;;23.94;60.66;100574.56;2100030;28;20528;-75
2022/08/17 04:05:28;;;;;;;5.32;2.38;;;;;;;24.01;60.95;100568.88;2103733;27;20044;-75
2022/08/17 04:06:50;;;;;;;6.25;2.70;;;;;;;24.10;60.74;100578.34;2106142;28;20451;-74
2022/08/17 04:08:12;;;;;;;7.22;3.05;;;;;;;24.19;60.59;100575.31;2096350;28;20106;-74
2022/08/17 04:09:35;;;;;;;5.70;2.42;;;;;;;24.28;60.78;100572.22;2099509;28;20063;-75
2022/08/17 04:11:00;;;;;;;7.03;2.55;;;;;;;24.39;60.33;100569.03;2106266;28;20097;-75
2022/08/17 04:12:24;;;;;;;5.00;2.47;;;;;;;24.51;60.67;100580.16;2106682;28;20635;-74
2022/08/17 04:13:45;;;;;;;4.38;2.53;;;;;;;24.62;60.31;100576.97;2103300;28;20071;-74
2022/08/17 04:15:11;;;;;;;3.75;2.33;;;;;;;24.75;60.46;100579.97;2103542;28;20059;-75
2022/08/17 04:16:34;;;;;;;7.07;2.63;;;;;;;24.86;60.18;100580.38;2103137;28;20040;-74
2022/08/17 04:17:57;;;;;;;6.47;2.28;;;;;;;24.93;59.87;100574.66;2096246;28;20053;-75
2022/08/17 04:19:18;;;;;;;4.97;2.40;;;;;;;25.03;59.42;100572.41;2103154;28;20075;-74
2022/08/17 04:20:41;;;;;;;4.10;2.33;;;;;;;25.14;59.34;100575.47;2104087;28;20217;-74
2022/08/17 04:22:04;;;;;;;5.28;2.08;;;;;;;25.24;59.53;100571.38;2102119;28;20051;-75
2022/08/17 04:23:31;;;;;;;3.80;2.22;;;;;;;25.35;59.18;100570.84;2102664;28;20047;-75
2022/08/17 04:24:54;;;;;;;5.25;2.38;;;;;;;25.46;58.79;100581.16;2119660;27;20091;-75
2022/08/17 04:26:18;;;;;;;3.65;2.25;;;;;;;25.58;58.95;100580.59;2091684;28;20053;-74
2022/08/17 04:27:40;;;;;;;4.85;2.17;;;;;;;25.71;58.49;100576.34;2101873;28;20036;-75
2022/08/17 04:29:03;;;;;;;7.90;2.22;;;;;;;25.80;58.36;100575.84;2118886;27;20107;-74
2022/08/17 04:30:26;;;;;;;5.57;2.33;;;;;;;25.90;58.39;100577.16;2107309;28;20078;-74
2022/08/17 04:31:48;;;;;;;6.50;2.35;;;;;;;26.00;58.09;100572.13;2102011;28;20135;-75
2022/08/17 04:33:12;;;;;;;8.32;2.95;;;;;;;26.15;57.79;100585.78;2101915;28;20281;-75
2022/08/17 04:34:35;;;;;;;5.13;2.00;;;;;;;26.30;57.89;100577.84;2103252;28;20736;-74
2022/08/17 04:35:59;;;;;;;8.60;2.35;;;;;;;26.46;57.49;100570.66;2103136;28;20043;-75
2022/08/17 04:37:22;;;;;;;6.50;2.33;;;;;;;26.57;57.30;100581.81;2094681;28;20064;-75
2022/08/17 04:38:45;;;;;;;5.22;2.50;;;;;;;26.69;57.13;100582.97;2104138;28;20048;-74
2022/08/17 04:42:15;;;;;;;5.20;2.65;;;;;;;26.84;56.63;100591.16;2105539;28;20043;-75
2022/08/17 04:43:40;;;;;;;5.53;2.10;;;;;;;26.92;56.56;100588.91;2106821;28;20052;-74
2022/08/17 04:45:02;;;;;;;3.50;2.03;;;;;;;27.00;56.01;100588.50;2103229;28;20092;-75
2022/08/17 04:46:29;;;;;;;4.63;1.80;;;;;;;27.10;55.96;100583.47;2101052;28;20967;-75
2022/08/17 04:47:50;;;;;;;4.45;1.83;;;;;;;27.19;55.77;100591.06;2098765;28;20472;-75
2022/08/17 04:49:13;;;;;;;5.07;1.85;;;;;;;27.31;55.50;100579.53;2102225;28;20048;-74
2022/08/17 04:50:34;;;;;;;5.45;2.75;;;;;;;27.46;55.23;100572.34;2105802;28;20067;-75
2022/08/17 04:51:57;;;;;;;5.65;2.10;;;;;;;27.57;54.70;100578.09;2100939;28;20056;-75
2022/08/17 04:53:20;;;;;;;4.95;2.13;;;;;;;27.69;54.55;100583.69;2094520;28;20138;-74
2022/08/17 04:54:43;;;;;;;5.20;1.88;;;;;;;27.89;54.24;100587.94;2099679;28;20081;-74
2022/08/17 04:56:05;;;;;;;2.53;1.50;;;;;;;28.08;54.09;100583.19;2093095;28;20048;-75
2022/08/17 04:57:29;;;;;;;;;;;;;;;28.23;53.74;100586.81;2110339;28;20132;-75
2022/08/17 04:58:54;;;;;;;3.47;1.80;;;;;;;28.47;53.56;100576.31;2097387;28;20468;-75
2022/08/17 05:00:15;;;;;;;4.63;2.08;;;;;;;28.65;53.31;100583.31;2110109;27;20047;-75
2022/08/17 05:01:40;;;;;;;5.93;2.30;;;;;;;28.82;52.53;100585.00;2095077;28;20481;-74
2022/08/17 05:03:02;;;;;;;3.90;1.73;;;;;;;28.93;52.53;100591.53;2100917;28;20051;-75
2022/08/17 05:04:25;;;;;;;6.35;2.13;;;;;;;29.05;52.32;100589.88;2110964;28;20044;-75
2022/08/17 05:05:48;;;;;;;9.82;2.05;;;;;;;29.21;52.09;100590.63;2105463;28;20051;-75
2022/08/17 05:07:11;;;;;;;4.88;2.00;;;;;;;29.42;51.63;100582.09;2100659;28;20135;-75
2022/08/17 05:08:33;;;;;;;4.10;2.00;;;;;;;29.60;51.11;100592.63;2093879;28;20044;-75
2022/08/17 05:09:56;;;;;;;4.15;1.45;;;;;;;29.76;50.82;100591.63;2100637;28;20126;-75
2022/08/17 05:11:19;;;;;;;6.07;2.00;;;;;;;29.86;50.26;100587.31;2100779;28;20071;-75
2022/08/17 05:12:43;;;;;;;3.75;1.70;;;;;;;29.97;50.00;100585.66;2104149;28;20506;-75
2022/08/17 05:14:06;;;;;;;6.90;2.00;;;;;;;30.10;49.78;100589.28;2103137;28;20036;-75
2022/08/17 05:15:29;;;;;;;4.22;1.83;;;;;;;30.28;49.07;100584.41;2102642;28;20055;-75
2022/08/17 05:16:51;;;;;;;5.07;1.80;;;;;;;30.44;49.08;100589.69;2100632;28;20043;-75
2022/08/17 05:18:13;;;;;;;6.85;2.00;;;;;;;30.59;48.81;100588.63;2111087;28;20135;-75
2022/08/17 05:19:36;;;;;;;4.95;1.67;;;;;;;30.77;48.66;100591.91;2104010;28;20594;-75
2022/08/17 05:20:57;;;;;;;7.72;2.55;;;;;;;30.94;48.33;100585.25;2100085;28;20367;-75
2022/08/17 05:22:20;;;;;;;6.03;1.90;;;;;;;31.14;47.77;100598.34;2102811;28;20539;-75
2022/08/17 05:23:42;;;;;;;4.40;1.88;;;;;;;31.34;47.53;100586.84;2094340;28;20049;-76
2022/08/17 05:25:04;;;;;;;;;;;;;;;31.46;46.90;100591.41;2106450;27;20039;-75
2022/08/17 05:26:27;;;;;;;;;;;;;;;31.64;47.01;100589.19;2103364;28;19920;-75
2022/08/17 05:27:50;;;;;;;5.72;1.73;;;;;;;31.87;46.77;100590.19;2103519;28;19985;-75
2022/08/17 05:29:12;;;;;;;5.28;2.08;;;;;;;32.03;46.64;100594.34;2096794;28;20049;-75
2022/08/17 05:30:34;;;;;;;2.50;1.80;;;;;;;32.20;45.95;100590.38;2098406;28;20073;-75
2022/08/17 05:31:56;;;;;;;4.28;1.73;;;;;;;32.37;45.56;100595.41;2116060;27;20042;-75
2022/08/17 05:33:20;;;;;;;3.80;1.80;;;;;;;32.53;45.01;100594.22;2107173;27;20097;-75
2022/08/17 05:34:43;;;;;;;3.65;1.77;;;;;;;32.62;44.59;100591.63;2111364;28;20671;-75
2022/08/17 05:36:08;;;;;;;6.03;1.85;;;;;;;32.68;44.28;100587.56;2094765;28;20045;-75
2022/08/17 05:37:30;;;;;;;7.43;2.13;;;;;;;32.76;44.24;100594.16;2097436;28;20043;-75
2022/08/17 05:38:55;;;;;;;4.68;1.80;;;;;;;32.90;43.77;100592.19;2104673;28;20052;-75
2022/08/17 05:40:17;;;;;;;5.38;1.90;;;;;;;32.97;43.64;100594.31;2101324;28;20045;-75
2022/08/17 05:41:40;;;;;;;5.68;2.15;;;;;;;33.04;43.24;100595.56;2094025;28;20135;-75
2022/08/17 05:43:10;;;;;;;6.20;1.95;;;;;;;33.14;42.95;100599.31;2091607;28;20072;-75
2022/08/17 05:44:32;;;;;;;5.55;1.90;;;;;;;33.22;42.88;100601.44;2110196;28;20106;-75
2022/08/17 05:46:00;;;;;;;5.32;1.90;;;;;;;33.32;42.32;100590.63;2118346;27;20082;-75
2022/08/17 05:47:25;;;;;;;7.10;2.03;;;;;;;33.35;42.34;100604.91;2097927;28;20144;-75
2022/08/17 05:48:50;;;;;;;4.13;1.95;;;;;;;33.44;42.44;100597.81;2099653;28;20044;-75
2022/08/17 05:50:34;;;;;;;5.75;1.80;;;;;;;33.59;42.19;100602.03;2105162;28;20051;-75
2022/08/17 05:52:14;;;;;;;4.70;1.90;;;;;;;33.73;41.98;100604.53;2104205;28;20072;-75
2022/08/17 05:53:47;;;;;;;4.88;1.88;;;;;;;33.84;41.81;100601.75;2121054;27;20057;-75
2022/08/17 05:55:17;;;;;;;5.97;2.03;;;;;;;33.88;41.90;100599.59;2104061;28;20048;-75
2022/08/17 05:56:54;;;;;;;5.90;1.73;;;;;;;33.99;41.92;100605.06;2103243;28;20036;-75
2022/08/17 05:58:25;;;;;;;6.70;2.20;;;;;;;34.10;41.77;100596.78;2104022;28;20112;-75
2022/08/17 05:59:56;;;;;;;5.82;2.25;;;;;;;34.22;41.66;100597.66;2111190;28;20040;-76
2022/08/17 06:01:33;;;;;;;4.85;2.15;;;;;;;34.27;41.49;100596.25;2102620;28;20062;-75
2022/08/17 06:03:22;;;;;;;6.97;2.15;;;;;;;34.33;41.12;100592.97;2102923;28;20106;-76
2022/08/17 06:04:58;;;;;;;7.55;1.73;;;;;;;34.42;41.18;100594.06;2102921;28;20594;-75
2022/08/17 06:06:31;;;;;;;7.07;2.15;;;;;;;34.55;41.00;100593.84;2107292;28;20078;-75
2022/08/17 06:07:59;;;;;;;6.30;2.03;;;;;;;34.65;40.79;100597.53;2095790;28;20052;-76
2022/08/17 06:09:31;;;;;;;5.10;2.30;;;;;;;34.70;40.34;100598.88;2108417;28;20630;-75
2022/08/17 06:10:58;;;;;;;6.97;2.60;;;;;;;34.75;40.30;100593.00;2087320;28;20164;-76
2022/08/17 06:12:34;;;;;;;5.88;1.50;;;;;;;34.84;40.08;100585.84;2099343;28;20142;-75
2022/08/17 06:14:24;;;;;;;5.57;2.00;;;;;;;34.90;39.68;100586.16;2105027;28;20057;-75
2022/08/17 06:15:57;;;;;;;6.43;2.00;;;;;;;34.99;39.57;100587.22;2103182;28;20147;-76
2022/08/17 06:17:23;;;;;;;4.55;1.80;;;;;;;35.04;39.62;100599.53;2103683;28;20132;-76
2022/08/17 06:18:53;;;;;;;5.18;2.03;;;;;;;35.12;39.59;100594.22;2097670;28;20091;-75
2022/08/17 06:20:16;;;;;;;3.38;1.73;;;;;;;35.28;39.53;100598.34;2100423;28;20528;-75
2022/08/17 06:21:43;;;;;;;6.55;1.98;;;;;;;35.40;39.19;100589.88;2101495;28;20043;-76
2022/08/17 06:23:11;;;;;;;7.55;2.20;;;;;;;35.50;39.05;100595.41;2104841;28;20068;-76
2022/08/17 06:24:39;;;;;;;7.40;1.95;;;;;;;35.59;38.58;100597.28;2103088;28;20044;-76
2022/08/17 06:26:06;;;;;;;5.60;2.08;;;;;;;35.63;38.64;100593.28;2100621;28;20153;-76
2022/08/17 06:27:35;;;;;;;7.63;1.88;;;;;;;35.67;38.49;100591.09;2101299;28;20048;-75
2022/08/17 06:29:02;;;;;;;7.82;2.00;;;;;;;35.74;38.45;100584.94;2103210;28;20048;-76
2022/08/17 06:30:29;;;;;;;4.35;1.60;;;;;;;35.79;38.07;100576.25;2099620;28;20090;-75
2022/08/17 06:31:51;;;;;;;6.05;2.17;;;;;;;35.73;38.16;100591.44;2106174;28;20520;-76
2022/08/17 06:33:26;;;;;;;4.82;1.80;;;;;;;35.68;38.00;100585.47;2096119;28;20838;-76
2022/08/17 06:34:49;;;;;;;4.93;2.25;;;;;;;35.73;37.98;100590.56;2103977;27;20131;-76
2022/08/17 06:36:28;;;;;;;5.53;1.88;;;;;;;35.73;37.95;100580.44;2093881;28;20058;-77
2022/08/17 06:38:02;;;;;;;5.78;2.20;;;;;;;35.77;37.84;100584.66;2101272;28;20178;-77
2022/08/17 06:39:35;;;;;;;5.68;1.90;;;;;;;35.81;37.47;100580.59;2102579;28;20094;-76
2022/08/17 06:41:08;;;;;;;6.20;1.85;;;;;;;35.78;37.51;100585.50;2104388;28;20071;-77
2022/08/17 06:42:43;;;;;;;8.52;1.80;;;;;;;35.79;37.58;100585.38;2090311;28;20041;-76
2022/08/17 06:44:13;;;;;;;4.60;1.90;;;;;;;35.75;37.43;100583.06;2103468;28;20052;-76
2022/08/17 06:45:40;;;;;;;5.05;2.05;;;;;;;35.69;37.67;100589.09;2103398;28;20044;-76
2022/08/17 06:47:09;;;;;;;4.63;2.00;;;;;;;35.64;37.53;100581.28;2112690;27;20106;-78
2022/08/17 06:48:41;;;;;;;6.30;1.77;;;;;;;35.67;37.44;100574.63;2103417;28;20051;-76